createdAt,value
2023-05-13T00:00:21.034Z,23.42
2023-05-13T00:01:20.610Z,23.40
2023-05-13T00:02:20.519Z,23.45
2023-05-13T00:03:20.560Z,23.43
2023-05-13T00:04:20.414Z,23.43
2023-05-13T00:05:20.464Z,23.43
2023-05-13T00:06:20.461Z,23.43
2023-05-13T00:07:20.437Z,23.42
2023-05-13T00:08:20.373Z,23.43
2023-05-13T00:09:20.408Z,23.42
2023-05-13T00:10:20.650Z,23.43
2023-05-13T00:11:20.394Z,23.40
2023-05-13T00:12:20.347Z,23.40
2023-05-13T00:13:20.380Z,23.43
2023-05-13T00:14:20.310Z,23.42
2023-05-13T00:15:20.352Z,23.43
2023-05-13T00:16:20.303Z,23.43
2023-05-13T00:17:20.471Z,23.39
2023-05-13T00:18:20.270Z,23.42
2023-05-13T00:19:20.336Z,23.39
2023-05-13T00:20:20.439Z,23.39
2023-05-13T00:21:20.288Z,23.42
2023-05-13T00:22:20.216Z,23.40
2023-05-13T00:23:20.275Z,23.40
2023-05-13T00:24:20.213Z,23.39
2023-05-13T00:25:20.248Z,23.42
2023-05-13T00:26:20.190Z,23.39
2023-05-13T00:27:20.231Z,23.40
2023-05-13T00:28:20.158Z,23.40
2023-05-13T00:29:20.199Z,23.42
2023-05-13T00:30:20.426Z,23.39
2023-05-13T00:31:20.210Z,23.43
2023-05-13T00:32:20.178Z,23.39
2023-05-13T00:33:20.169Z,23.40
2023-05-13T00:34:20.100Z,23.39
2023-05-13T00:35:20.142Z,23.39
2023-05-13T00:36:20.083Z,23.39
2023-05-13T00:37:20.142Z,23.42
2023-05-13T00:38:20.053Z,23.40
2023-05-13T00:39:20.094Z,23.40
2023-05-13T00:40:20.211Z,23.38
2023-05-13T00:41:20.088Z,23.40
2023-05-13T00:42:20.015Z,23.38
2023-05-13T00:43:20.076Z,23.38
2023-05-13T00:44:19.992Z,23.39
2023-05-13T00:45:20.029Z,23.36
2023-05-13T00:46:20.011Z,23.42
2023-05-13T00:47:20.044Z,23.39
2023-05-13T00:48:19.947Z,23.38
2023-05-13T00:49:20.008Z,23.39
2023-05-13T00:50:20.174Z,23.40
2023-05-13T00:51:19.982Z,23.38
2023-05-13T00:52:19.907Z,23.39
2023-05-13T00:53:19.968Z,23.39
2023-05-13T00:54:19.886Z,23.36
2023-05-13T00:55:19.944Z,23.38
2023-05-13T00:56:19.864Z,23.39
2023-05-13T00:57:19.910Z,23.40
2023-05-13T00:58:19.842Z,23.38
2023-05-13T00:59:19.881Z,23.39
2023-05-13T01:00:20.061Z,23.35
2023-05-13T01:01:19.904Z,23.38
2023-05-13T01:02:19.931Z,23.38
2023-05-13T01:03:20.004Z,23.39
2023-05-13T01:04:19.776Z,23.40
2023-05-13T01:05:19.832Z,23.36
2023-05-13T01:06:19.752Z,23.38
2023-05-13T01:07:19.793Z,23.36
2023-05-13T01:08:19.733Z,23.35
2023-05-13T01:09:19.790Z,23.35
2023-05-13T01:10:19.897Z,23.38
2023-05-13T01:11:19.754Z,23.36
2023-05-13T01:12:19.692Z,23.39
2023-05-13T01:13:19.740Z,23.36
2023-05-13T01:14:19.681Z,23.39
2023-05-13T01:15:19.713Z,23.35
2023-05-13T01:16:19.682Z,23.36
2023-05-13T01:17:19.730Z,23.36
2023-05-13T01:18:19.627Z,23.35
2023-05-13T01:19:19.675Z,23.36
2023-05-13T01:20:19.862Z,23.39
2023-05-13T01:21:19.654Z,23.39
2023-05-13T01:22:19.590Z,23.36
2023-05-13T01:23:19.631Z,23.36
2023-05-13T01:24:19.631Z,23.36
2023-05-13T01:25:19.605Z,23.35
2023-05-13T01:26:19.544Z,23.36
2023-05-13T01:27:19.583Z,23.33
2023-05-13T01:28:19.524Z,23.33
2023-05-13T01:29:19.567Z,23.28
2023-05-13T01:30:19.826Z,23.31
2023-05-13T01:31:19.588Z,23.35
2023-05-13T01:32:19.476Z,23.33
2023-05-13T01:33:19.526Z,23.31
2023-05-13T01:34:19.456Z,23.33
2023-05-13T01:35:19.507Z,23.35
2023-05-13T01:36:19.445Z,23.33
2023-05-13T01:37:19.503Z,23.31
2023-05-13T01:38:19.425Z,23.31
2023-05-13T01:39:19.455Z,23.36
2023-05-13T01:40:31.684Z,23.33
2023-05-13T01:41:19.432Z,23.35
2023-05-13T01:42:19.375Z,23.35
2023-05-13T01:43:19.422Z,23.33
2023-05-13T01:44:19.375Z,23.35
2023-05-13T01:45:19.405Z,23.33
2023-05-13T01:46:19.361Z,23.33
2023-05-13T01:47:19.424Z,23.33
2023-05-13T01:48:19.335Z,23.33
2023-05-13T01:49:19.355Z,23.31
2023-05-13T01:50:19.380Z,23.33
2023-05-13T01:51:19.344Z,23.33
2023-05-13T01:52:19.290Z,23.33
2023-05-13T01:53:19.316Z,23.28
2023-05-13T01:54:19.253Z,23.31
2023-05-13T01:55:19.284Z,23.30
2023-05-13T01:56:19.226Z,23.30
2023-05-13T01:57:19.275Z,23.30
2023-05-13T01:58:19.208Z,23.33
2023-05-13T01:59:19.248Z,23.28
2023-05-13T02:00:19.376Z,23.30
2023-05-13T02:01:21.790Z,23.30
2023-05-13T02:02:19.226Z,23.33
2023-05-13T02:03:19.313Z,23.30
2023-05-13T02:04:19.203Z,23.33
2023-05-13T02:05:19.227Z,23.31
2023-05-13T02:06:19.134Z,23.31
2023-05-13T02:07:19.252Z,23.33
2023-05-13T02:08:19.178Z,23.31
2023-05-13T02:09:19.218Z,23.31
2023-05-13T02:10:19.237Z,23.30
2023-05-13T02:11:19.193Z,23.31
2023-05-13T02:12:19.121Z,23.28
2023-05-13T02:13:19.179Z,23.31
2023-05-13T02:14:19.096Z,23.28
2023-05-13T02:15:19.127Z,23.30
2023-05-13T02:16:19.125Z,23.30
2023-05-13T02:17:19.109Z,23.30
2023-05-13T02:18:19.023Z,23.28
2023-05-13T02:19:19.111Z,23.28
2023-05-13T02:20:19.204Z,23.28
2023-05-13T02:21:19.038Z,23.27
2023-05-13T02:22:18.949Z,23.28
2023-05-13T02:23:18.997Z,23.28
2023-05-13T02:24:18.935Z,23.28
2023-05-13T02:25:18.980Z,23.27
2023-05-13T02:26:18.902Z,23.30
2023-05-13T02:27:18.963Z,23.28
2023-05-13T02:28:18.887Z,23.28
2023-05-13T02:29:18.938Z,23.28
2023-05-13T02:30:18.900Z,23.27
2023-05-13T02:31:18.947Z,23.30
2023-05-13T02:32:18.844Z,23.27
2023-05-13T02:33:18.893Z,23.28
2023-05-13T02:34:18.939Z,23.27
2023-05-13T02:35:18.858Z,23.30
2023-05-13T02:36:18.800Z,23.28
2023-05-13T02:37:18.851Z,23.28
2023-05-13T02:38:18.777Z,23.27
2023-05-13T02:39:18.826Z,23.27
2023-05-13T02:40:18.887Z,23.27
2023-05-13T02:41:18.807Z,23.27
2023-05-13T02:42:18.734Z,23.24
2023-05-13T02:43:18.788Z,23.27
2023-05-13T02:44:18.715Z,23.24
2023-05-13T02:45:18.759Z,23.25
2023-05-13T02:46:18.767Z,23.25
2023-05-13T02:47:18.756Z,23.25
2023-05-13T02:48:18.671Z,23.27
2023-05-13T02:49:18.732Z,23.28
2023-05-13T02:50:18.760Z,23.27
2023-05-13T02:51:18.723Z,23.24
2023-05-13T02:52:18.640Z,23.24
2023-05-13T02:53:18.683Z,23.25
2023-05-13T02:54:18.635Z,23.24
2023-05-13T02:55:18.735Z,23.25
2023-05-13T02:56:18.595Z,23.23
2023-05-13T02:57:18.628Z,23.25
2023-05-13T02:58:18.611Z,23.25
2023-05-13T02:59:18.733Z,23.24
2023-05-13T03:00:18.557Z,23.25
2023-05-13T03:01:18.661Z,23.24
2023-05-13T03:02:18.700Z,23.25
2023-05-13T03:03:18.719Z,23.25
2023-05-13T03:04:18.519Z,23.27
2023-05-13T03:05:18.583Z,23.25
2023-05-13T03:06:18.485Z,23.23
2023-05-13T03:07:18.579Z,23.25
2023-05-13T03:08:18.404Z,23.23
2023-05-13T03:09:18.524Z,23.24
2023-05-13T03:10:18.407Z,23.24
2023-05-13T03:11:18.438Z,23.21
2023-05-13T03:12:18.367Z,23.24
2023-05-13T03:13:18.460Z,23.24
2023-05-13T03:14:18.409Z,23.24
2023-05-13T03:15:18.450Z,23.20
2023-05-13T03:16:18.394Z,23.23
2023-05-13T03:17:21.314Z,23.24
2023-05-13T03:18:18.304Z,23.23
2023-05-13T03:19:18.515Z,23.21
2023-05-13T03:20:18.305Z,23.23
2023-05-13T03:21:18.330Z,23.21
2023-05-13T03:22:18.265Z,23.23
2023-05-13T03:23:18.303Z,23.23
2023-05-13T03:24:18.243Z,23.23
2023-05-13T03:25:18.278Z,23.23
2023-05-13T03:26:18.225Z,23.25
2023-05-13T03:27:18.255Z,23.20
2023-05-13T03:28:18.194Z,23.21
2023-05-13T03:29:18.265Z,23.21
2023-05-13T03:30:18.178Z,23.21
2023-05-13T03:31:18.289Z,23.20
2023-05-13T03:32:18.141Z,23.23
2023-05-13T03:33:18.226Z,23.21
2023-05-13T03:34:18.119Z,23.23
2023-05-13T03:35:18.208Z,23.23
2023-05-13T03:36:18.090Z,23.20
2023-05-13T03:37:18.181Z,23.24
2023-05-13T03:38:18.082Z,23.21
2023-05-13T03:39:18.137Z,23.20
2023-05-13T03:40:18.095Z,23.21
2023-05-13T03:41:18.120Z,23.24
2023-05-13T03:42:18.035Z,23.21
2023-05-13T03:43:18.097Z,23.25
2023-05-13T03:44:18.033Z,23.21
2023-05-13T03:45:18.083Z,23.20
2023-05-13T03:46:18.021Z,23.24
2023-05-13T03:47:18.065Z,23.23
2023-05-13T03:48:17.966Z,23.21
2023-05-13T03:49:18.027Z,23.23
2023-05-13T03:50:17.949Z,23.21
2023-05-13T03:51:18.024Z,23.21
2023-05-13T03:52:17.927Z,23.23
2023-05-13T03:53:18.014Z,23.23
2023-05-13T03:54:17.907Z,23.24
2023-05-13T03:55:17.988Z,23.23
2023-05-13T03:56:17.885Z,23.24
2023-05-13T03:57:17.965Z,23.24
2023-05-13T03:58:17.878Z,23.21
2023-05-13T03:59:17.938Z,23.24
2023-05-13T04:00:17.848Z,23.24
2023-05-13T04:01:17.926Z,23.25
2023-05-13T04:02:17.904Z,23.23
2023-05-13T04:03:17.909Z,23.25
2023-05-13T04:04:17.800Z,23.25
2023-05-13T04:05:17.923Z,23.24
2023-05-13T04:06:17.779Z,23.27
2023-05-13T04:07:17.860Z,23.24
2023-05-13T04:08:17.759Z,23.25
2023-05-13T04:09:17.838Z,23.27
2023-05-13T04:10:17.748Z,23.27
2023-05-13T04:11:17.810Z,23.24
2023-05-13T04:12:17.720Z,23.30
2023-05-13T04:13:17.799Z,23.28
2023-05-13T04:14:17.714Z,23.27
2023-05-13T04:15:17.755Z,23.28
2023-05-13T04:16:17.712Z,23.28
2023-05-13T04:17:17.749Z,23.31
2023-05-13T04:18:17.659Z,23.28
2023-05-13T04:19:17.732Z,23.31
2023-05-13T04:20:17.637Z,23.31
2023-05-13T04:21:17.698Z,23.30
2023-05-13T04:22:17.608Z,23.31
2023-05-13T04:23:17.687Z,23.31
2023-05-13T04:24:17.603Z,23.30
2023-05-13T04:25:17.686Z,23.31
2023-05-13T04:26:17.566Z,23.31
2023-05-13T04:27:17.644Z,23.33
2023-05-13T04:28:17.546Z,23.31
2023-05-13T04:29:17.615Z,23.35
2023-05-13T04:30:17.525Z,23.35
2023-05-13T04:31:17.607Z,23.31
2023-05-13T04:32:17.501Z,23.38
2023-05-13T04:33:17.572Z,23.39
2023-05-13T04:34:17.493Z,23.36
2023-05-13T04:35:17.558Z,23.40
2023-05-13T04:36:17.459Z,23.40
2023-05-13T04:37:17.534Z,23.40
2023-05-13T04:38:17.439Z,23.43
2023-05-13T04:39:17.517Z,23.45
2023-05-13T04:40:17.419Z,23.47
2023-05-13T04:41:17.475Z,23.47
2023-05-13T04:42:17.397Z,23.53
2023-05-13T04:43:17.474Z,23.55
2023-05-13T04:44:17.386Z,23.58
2023-05-13T04:45:17.450Z,23.62
2023-05-13T04:46:17.403Z,23.70
2023-05-13T04:47:17.439Z,23.73
2023-05-13T04:48:17.337Z,23.77
2023-05-13T04:49:17.397Z,23.85
2023-05-13T04:50:17.309Z,23.86
2023-05-13T04:51:17.396Z,23.91
2023-05-13T04:52:17.295Z,23.98
2023-05-13T04:53:17.356Z,24.05
2023-05-13T04:54:17.262Z,24.06
2023-05-13T04:55:17.352Z,24.13
2023-05-13T04:56:17.266Z,24.16
2023-05-13T04:57:17.321Z,24.20
2023-05-13T04:58:17.236Z,24.26
2023-05-13T04:59:17.305Z,24.33
2023-05-13T05:00:17.204Z,24.38
2023-05-13T05:01:17.340Z,24.42
2023-05-13T05:02:17.189Z,24.47
2023-05-13T05:03:17.263Z,24.53
2023-05-13T05:04:17.201Z,24.60
2023-05-13T05:05:18.511Z,24.68
2023-05-13T05:06:17.144Z,24.77
2023-05-13T05:07:17.240Z,24.92
2023-05-13T05:08:17.125Z,25.13
2023-05-13T05:09:17.195Z,25.34
2023-05-13T05:10:17.098Z,25.58
2023-05-13T05:11:17.170Z,25.83
2023-05-13T05:12:17.080Z,26.10
2023-05-13T05:13:17.160Z,26.30
2023-05-13T05:14:17.052Z,26.52
2023-05-13T05:15:17.142Z,26.72
2023-05-13T05:16:17.035Z,26.92
2023-05-13T05:17:17.124Z,27.07
2023-05-13T05:18:17.022Z,27.21
2023-05-13T05:19:17.101Z,27.36
2023-05-13T05:20:17.011Z,27.51
2023-05-13T05:21:17.058Z,27.64
2023-05-13T05:22:16.989Z,27.77
2023-05-13T05:23:17.048Z,27.91
2023-05-13T05:24:17.125Z,28.04
2023-05-13T05:25:17.117Z,28.14
2023-05-13T05:26:16.933Z,28.24
2023-05-13T05:27:16.992Z,28.33
2023-05-13T05:28:16.914Z,28.42
2023-05-13T05:29:16.971Z,28.51
2023-05-13T05:30:16.890Z,28.60
2023-05-13T05:31:16.981Z,28.64
2023-05-13T05:32:16.869Z,28.70
2023-05-13T05:33:16.994Z,28.75
2023-05-13T05:34:16.852Z,28.76
2023-05-13T05:35:17.000Z,28.78
2023-05-13T05:36:16.839Z,28.75
2023-05-13T05:37:16.898Z,28.76
2023-05-13T05:38:16.803Z,28.70
2023-05-13T05:39:16.875Z,28.69
2023-05-13T05:40:16.782Z,28.59
2023-05-13T05:41:16.860Z,28.48
2023-05-13T05:42:16.758Z,28.37
2023-05-13T05:43:16.833Z,28.22
2023-05-13T05:44:16.744Z,28.09
2023-05-13T05:45:16.814Z,27.97
2023-05-13T05:46:16.745Z,27.86
2023-05-13T05:47:16.899Z,27.76
2023-05-13T05:48:16.698Z,27.69
2023-05-13T05:49:16.763Z,27.63
2023-05-13T05:50:16.675Z,27.57
2023-05-13T05:51:16.754Z,27.54
2023-05-13T05:52:16.659Z,27.51
2023-05-13T05:53:16.719Z,27.52
2023-05-13T05:54:16.636Z,27.55
2023-05-13T05:55:16.694Z,27.59
2023-05-13T05:56:16.613Z,27.63
2023-05-13T05:57:16.674Z,27.69
2023-05-13T05:58:16.596Z,27.77
2023-05-13T05:59:16.662Z,27.86
2023-05-13T06:00:16.567Z,27.97
2023-05-13T06:01:16.642Z,28.10
2023-05-13T06:02:16.600Z,28.24
2023-05-13T06:03:16.816Z,28.41
2023-05-13T06:04:16.677Z,28.59
2023-05-13T06:05:16.633Z,28.81
2023-05-13T06:06:16.511Z,29.09
2023-05-13T06:07:16.598Z,29.37
2023-05-13T06:08:16.476Z,29.65
2023-05-13T06:09:16.558Z,29.97
2023-05-13T06:10:16.465Z,30.25
2023-05-13T06:11:16.534Z,30.52
2023-05-13T06:12:16.441Z,30.79
2023-05-13T06:13:16.512Z,31.04
2023-05-13T06:14:16.420Z,30.34
2023-05-13T06:15:16.499Z,30.02
2023-05-13T06:16:16.491Z,29.75
2023-05-13T06:17:16.476Z,29.55
2023-05-13T06:18:16.389Z,29.44
2023-05-13T06:19:16.817Z,29.35
2023-05-13T06:20:16.360Z,29.30
2023-05-13T06:21:16.445Z,29.22
2023-05-13T06:22:16.344Z,29.15
2023-05-13T06:23:16.407Z,29.06
2023-05-13T06:24:16.329Z,28.97
2023-05-13T06:25:16.400Z,28.86
2023-05-13T06:26:16.309Z,28.78
2023-05-13T06:27:16.374Z,28.72
2023-05-13T06:28:16.288Z,28.70
2023-05-13T06:29:16.357Z,28.70
2023-05-13T06:30:16.272Z,28.67
2023-05-13T06:31:16.367Z,28.63
2023-05-13T06:32:16.246Z,28.59
2023-05-13T06:33:16.371Z,28.56
2023-05-13T06:34:16.216Z,28.48
2023-05-13T06:35:16.313Z,28.44
2023-05-13T06:36:16.206Z,28.38
2023-05-13T06:37:16.273Z,28.37
2023-05-13T06:38:16.179Z,28.32
2023-05-13T06:39:16.253Z,28.32
2023-05-13T06:40:16.158Z,28.26
2023-05-13T06:41:16.230Z,28.26
2023-05-13T06:42:16.142Z,28.24
2023-05-13T06:43:16.213Z,28.21
2023-05-13T06:44:16.120Z,28.21
2023-05-13T06:45:16.190Z,28.26
2023-05-13T06:46:16.101Z,28.35
2023-05-13T06:47:16.418Z,28.56
2023-05-13T06:48:16.095Z,28.81
2023-05-13T06:49:16.142Z,29.07
2023-05-13T06:50:16.060Z,29.34
2023-05-13T06:51:16.133Z,29.64
2023-05-13T06:52:16.052Z,29.88
2023-05-13T06:53:16.119Z,30.08
2023-05-13T06:54:16.025Z,30.19
2023-05-13T06:55:16.100Z,30.28
2023-05-13T06:56:16.005Z,30.34
2023-05-13T06:57:16.066Z,30.42
2023-05-13T06:58:15.978Z,30.49
2023-05-13T06:59:16.054Z,30.56
2023-05-13T07:00:15.952Z,30.62
2023-05-13T07:01:16.100Z,30.69
2023-05-13T07:02:15.940Z,30.76
2023-05-13T07:03:16.062Z,30.80
2023-05-13T07:04:15.961Z,30.82
2023-05-13T07:05:15.990Z,30.83
2023-05-13T07:06:15.893Z,30.83
2023-05-13T07:07:15.978Z,30.86
2023-05-13T07:08:15.874Z,30.84
2023-05-13T07:09:16.266Z,30.87
2023-05-13T07:10:15.857Z,30.89
2023-05-13T07:11:15.936Z,30.93
2023-05-13T07:12:15.831Z,31.17
2023-05-13T07:13:15.908Z,31.31
2023-05-13T07:14:15.826Z,31.43
2023-05-13T07:15:15.898Z,31.55
2023-05-13T07:16:15.792Z,31.62
2023-05-13T07:17:15.884Z,31.62
2023-05-13T07:18:15.790Z,31.62
2023-05-13T07:19:15.921Z,31.58
2023-05-13T07:20:15.747Z,31.54
2023-05-13T07:21:15.835Z,31.46
2023-05-13T07:22:15.736Z,31.34
2023-05-13T07:23:15.803Z,31.21
2023-05-13T07:24:15.711Z,31.02
2023-05-13T07:25:15.801Z,30.83
2023-05-13T07:26:15.700Z,30.60
2023-05-13T07:27:15.790Z,30.34
2023-05-13T07:28:15.675Z,30.05
2023-05-13T07:29:15.743Z,29.75
2023-05-13T07:30:15.685Z,29.43
2023-05-13T07:31:15.763Z,29.15
2023-05-13T07:32:15.639Z,28.89
2023-05-13T07:33:15.698Z,28.66
2023-05-13T07:34:15.614Z,28.45
2023-05-13T07:35:15.680Z,28.25
2023-05-13T07:36:15.598Z,28.10
2023-05-13T07:37:15.674Z,27.94
2023-05-13T07:38:15.617Z,27.77
2023-05-13T07:39:15.643Z,27.67
2023-05-13T07:40:15.565Z,27.55
2023-05-13T07:41:15.655Z,27.45
2023-05-13T07:42:15.577Z,27.33
2023-05-13T07:43:15.617Z,27.25
2023-05-13T07:44:15.526Z,27.15
2023-05-13T07:45:15.606Z,27.05
2023-05-13T07:46:15.514Z,26.97
2023-05-13T07:47:15.653Z,26.93
2023-05-13T07:48:15.528Z,26.82
2023-05-13T07:49:15.546Z,26.76
2023-05-13T07:50:15.473Z,26.72
2023-05-13T07:51:15.519Z,26.65
2023-05-13T07:52:15.451Z,26.59
2023-05-13T07:53:17.160Z,26.55
2023-05-13T07:54:15.446Z,26.50
2023-05-13T07:55:15.485Z,26.44
2023-05-13T07:56:15.409Z,26.42
2023-05-13T07:57:15.461Z,26.39
2023-05-13T07:58:15.392Z,26.35
2023-05-13T07:59:15.439Z,26.32
2023-05-13T08:00:15.368Z,26.27
2023-05-13T08:01:15.468Z,26.24
2023-05-13T08:02:15.352Z,26.24
2023-05-13T08:03:15.496Z,26.20
2023-05-13T08:04:15.623Z,26.17
2023-05-13T08:05:15.384Z,26.14
2023-05-13T08:06:15.313Z,26.13
2023-05-13T08:07:15.360Z,26.09
2023-05-13T08:08:15.291Z,26.09
2023-05-13T08:09:15.346Z,26.06
2023-05-13T08:10:15.280Z,26.05
2023-05-13T08:11:15.332Z,26.05
2023-05-13T08:12:15.252Z,26.02
2023-05-13T08:13:15.295Z,26.00
2023-05-13T08:14:15.226Z,25.99
2023-05-13T08:15:15.273Z,26.00
2023-05-13T08:16:15.251Z,25.99
2023-05-13T08:17:15.255Z,25.96
2023-05-13T08:18:15.181Z,25.95
2023-05-13T08:19:15.251Z,25.98
2023-05-13T08:20:15.179Z,25.93
2023-05-13T08:21:15.202Z,25.91
2023-05-13T08:22:15.141Z,25.91
2023-05-13T08:23:15.192Z,25.88
2023-05-13T08:24:15.119Z,25.90
2023-05-13T08:25:15.188Z,25.87
2023-05-13T08:26:15.112Z,25.85
2023-05-13T08:27:15.175Z,25.85
2023-05-13T08:28:15.078Z,25.84
2023-05-13T08:29:15.118Z,25.83
2023-05-13T08:30:15.059Z,25.81
2023-05-13T08:31:15.128Z,25.81
2023-05-13T08:32:15.153Z,25.81
2023-05-13T08:33:15.088Z,25.78
2023-05-13T08:34:15.016Z,25.77
2023-05-13T08:35:15.087Z,25.78
2023-05-13T08:36:14.990Z,25.75
2023-05-13T08:37:15.033Z,25.75
2023-05-13T08:38:14.968Z,25.75
2023-05-13T08:39:15.024Z,25.75
2023-05-13T08:40:14.956Z,25.73
2023-05-13T08:41:15.069Z,25.73
2023-05-13T08:42:14.928Z,25.72
2023-05-13T08:43:14.982Z,25.69
2023-05-13T08:44:14.911Z,25.68
2023-05-13T08:45:14.955Z,25.69
2023-05-13T08:46:14.999Z,25.68
2023-05-13T08:47:14.944Z,25.68
2023-05-13T08:48:14.934Z,25.66
2023-05-13T08:49:14.927Z,25.65
2023-05-13T08:50:14.849Z,25.65
2023-05-13T08:51:14.891Z,25.63
2023-05-13T08:52:14.830Z,25.63
2023-05-13T08:53:14.869Z,25.62
2023-05-13T08:54:14.812Z,25.62
2023-05-13T08:55:14.844Z,25.60
2023-05-13T08:56:14.788Z,25.60
2023-05-13T08:57:14.833Z,25.59
2023-05-13T08:58:14.777Z,25.59
2023-05-13T08:59:14.816Z,25.55
2023-05-13T09:00:14.747Z,25.55
2023-05-13T09:01:14.805Z,25.55
2023-05-13T09:02:14.720Z,25.58
2023-05-13T09:03:14.774Z,25.54
2023-05-13T09:04:14.697Z,25.53
2023-05-13T09:05:14.825Z,25.53
2023-05-13T09:06:14.677Z,25.54
2023-05-13T09:07:14.719Z,25.51
2023-05-13T09:08:14.665Z,25.53
2023-05-13T09:09:14.698Z,25.50
2023-05-13T09:10:14.632Z,25.51
2023-05-13T09:11:14.683Z,25.51
2023-05-13T09:12:14.612Z,25.47
2023-05-13T09:13:14.660Z,25.47
2023-05-13T09:14:14.595Z,25.48
2023-05-13T09:15:14.647Z,25.47
2023-05-13T09:16:14.691Z,25.47
2023-05-13T09:17:14.622Z,25.46
2023-05-13T09:18:16.497Z,25.46
2023-05-13T09:19:14.759Z,25.44
2023-05-13T09:20:14.553Z,25.42
2023-05-13T09:21:14.575Z,25.44
2023-05-13T09:22:14.500Z,25.40
2023-05-13T09:23:14.544Z,25.40
2023-05-13T09:24:14.484Z,25.42
2023-05-13T09:25:14.519Z,25.40
2023-05-13T09:26:14.469Z,25.39
2023-05-13T09:27:14.504Z,25.39
2023-05-13T09:28:14.473Z,25.39
2023-05-13T09:29:14.494Z,25.35
2023-05-13T09:30:14.415Z,25.37
2023-05-13T09:31:14.493Z,25.37
2023-05-13T09:32:14.528Z,25.37
2023-05-13T09:33:14.421Z,25.35
2023-05-13T09:34:14.456Z,25.34
2023-05-13T09:35:14.353Z,25.34
2023-05-13T09:36:14.421Z,25.35
2023-05-13T09:37:14.327Z,25.32
2023-05-13T09:38:14.393Z,25.34
2023-05-13T09:39:14.308Z,25.32
2023-05-13T09:40:14.385Z,25.31
2023-05-13T09:41:14.286Z,25.30
2023-05-13T09:42:14.353Z,25.31
2023-05-13T09:43:14.265Z,25.28
2023-05-13T09:44:14.332Z,25.30
2023-05-13T09:45:14.240Z,25.30
2023-05-13T09:46:14.319Z,25.27
2023-05-13T09:47:14.343Z,25.27
2023-05-13T09:48:14.320Z,25.30
2023-05-13T09:49:14.201Z,25.28
2023-05-13T09:50:14.343Z,25.27
2023-05-13T09:51:14.186Z,25.27
2023-05-13T09:52:14.255Z,25.25
2023-05-13T09:53:14.171Z,25.24
2023-05-13T09:54:14.224Z,25.24
2023-05-13T09:55:14.142Z,25.24
2023-05-13T09:56:14.212Z,25.22
2023-05-13T09:57:14.122Z,25.21
2023-05-13T09:58:14.194Z,25.22
2023-05-13T09:59:14.134Z,25.22
2023-05-13T10:00:21.414Z,25.21
2023-05-13T10:01:14.121Z,25.21
2023-05-13T10:02:14.155Z,25.20
2023-05-13T10:03:14.131Z,25.20
2023-05-13T10:04:14.163Z,25.20
2023-05-13T10:05:14.031Z,25.20
2023-05-13T10:06:14.108Z,25.16
2023-05-13T10:07:14.013Z,25.17
2023-05-13T10:08:14.085Z,25.17
2023-05-13T10:09:13.994Z,25.17
2023-05-13T10:10:14.072Z,25.17
2023-05-13T10:11:15.361Z,25.15
2023-05-13T10:12:14.046Z,25.17
2023-05-13T10:13:13.947Z,25.15
2023-05-13T10:14:14.023Z,25.15
2023-05-13T10:15:13.936Z,25.15
2023-05-13T10:16:14.044Z,25.15
2023-05-13T10:17:13.911Z,25.12
2023-05-13T10:18:14.020Z,25.15
2023-05-13T10:19:13.965Z,25.15
2023-05-13T10:20:13.960Z,25.13
2023-05-13T10:21:13.983Z,25.15
2023-05-13T10:22:13.864Z,25.13
2023-05-13T10:23:13.987Z,25.12
2023-05-13T10:24:13.870Z,25.13
2023-05-13T10:25:13.884Z,25.12
2023-05-13T10:26:13.822Z,25.09
2023-05-13T10:27:13.857Z,25.09
2023-05-13T10:28:13.800Z,25.10
2023-05-13T10:29:13.838Z,25.07
2023-05-13T10:30:13.787Z,25.09
2023-05-13T10:31:13.832Z,25.09
2023-05-13T10:32:13.918Z,25.07
2023-05-13T10:33:13.863Z,25.09
2023-05-13T10:34:13.734Z,25.09
2023-05-13T10:35:13.820Z,25.09
2023-05-13T10:36:13.712Z,25.09
2023-05-13T10:37:13.750Z,25.06
2023-05-13T10:38:13.691Z,25.07
2023-05-13T10:39:13.744Z,25.06
2023-05-13T10:40:13.669Z,25.07
2023-05-13T10:41:13.722Z,25.06
2023-05-13T10:42:13.652Z,25.07
2023-05-13T10:43:13.701Z,25.07
2023-05-13T10:44:13.632Z,25.05
2023-05-13T10:45:13.674Z,25.05
2023-05-13T10:46:13.634Z,25.06
2023-05-13T10:47:13.690Z,25.05
2023-05-13T10:48:13.663Z,25.03
2023-05-13T10:49:13.645Z,25.06
2023-05-13T10:50:13.565Z,25.03
2023-05-13T10:51:13.611Z,25.05
2023-05-13T10:52:13.612Z,25.05
2023-05-13T10:53:13.584Z,25.05
2023-05-13T10:54:13.636Z,25.02
2023-05-13T10:55:13.492Z,25.03
2023-05-13T10:56:13.571Z,25.02
2023-05-13T10:57:13.492Z,25.03
2023-05-13T10:58:13.571Z,25.03
2023-05-13T10:59:13.450Z,25.02
2023-05-13T11:00:13.525Z,25.02
2023-05-13T11:01:13.459Z,25.02
2023-05-13T11:02:13.498Z,25.00
2023-05-13T11:03:13.532Z,25.00
2023-05-13T11:04:13.567Z,25.00
2023-05-13T11:05:13.392Z,25.00
2023-05-13T11:06:13.463Z,25.02
2023-05-13T11:07:13.368Z,25.00
2023-05-13T11:08:13.445Z,24.98
2023-05-13T11:09:13.360Z,24.98
2023-05-13T11:10:13.427Z,24.98
2023-05-13T11:11:13.333Z,25.00
2023-05-13T11:12:13.401Z,24.98
2023-05-13T11:13:13.299Z,25.00
2023-05-13T11:14:13.370Z,24.97
2023-05-13T11:15:13.285Z,24.97
2023-05-13T11:16:13.652Z,24.98
2023-05-13T11:17:13.264Z,24.98
2023-05-13T11:18:13.518Z,24.98
2023-05-13T11:19:13.359Z,24.97
2023-05-13T11:20:13.318Z,24.98
2023-05-13T11:21:13.220Z,24.97
2023-05-13T11:22:13.296Z,24.95
2023-05-13T11:23:13.376Z,24.97
2023-05-13T11:24:13.202Z,24.97
2023-05-13T11:25:13.264Z,24.97
2023-05-13T11:26:13.175Z,24.97
2023-05-13T11:27:13.230Z,24.95
2023-05-13T11:28:13.157Z,24.97
2023-05-13T11:29:13.205Z,24.95
2023-05-13T11:30:13.202Z,24.94
2023-05-13T11:31:13.215Z,24.95
2023-05-13T11:32:13.113Z,24.97
2023-05-13T11:33:13.166Z,24.94
2023-05-13T11:34:13.132Z,24.94
2023-05-13T11:35:13.154Z,24.95
2023-05-13T11:36:13.081Z,24.95
2023-05-13T11:37:13.114Z,24.94
2023-05-13T11:38:13.049Z,24.94
2023-05-13T11:39:13.082Z,24.94
2023-05-13T11:40:13.038Z,24.94
2023-05-13T11:41:13.072Z,24.91
2023-05-13T11:42:13.020Z,24.94
2023-05-13T11:43:13.045Z,24.92
2023-05-13T11:44:12.985Z,24.92
2023-05-13T11:45:13.036Z,24.91
2023-05-13T11:46:13.050Z,24.94
2023-05-13T11:47:13.033Z,24.88
2023-05-13T11:48:12.968Z,24.90
2023-05-13T11:49:12.994Z,24.88
2023-05-13T11:50:12.921Z,24.88
2023-05-13T11:51:12.971Z,24.88
2023-05-13T11:52:12.896Z,24.88
2023-05-13T11:53:12.940Z,24.90
2023-05-13T11:54:12.876Z,24.91
2023-05-13T11:55:12.935Z,24.88
2023-05-13T11:56:12.894Z,24.92
2023-05-13T11:57:12.928Z,24.87
2023-05-13T11:58:12.837Z,24.88
2023-05-13T11:59:12.896Z,24.90
2023-05-13T12:00:12.819Z,24.91
2023-05-13T12:01:12.989Z,24.88
2023-05-13T12:02:12.809Z,24.90
2023-05-13T12:03:12.909Z,24.88
2023-05-13T12:04:12.763Z,24.85
2023-05-13T12:05:12.870Z,24.91
2023-05-13T12:06:12.740Z,24.90
2023-05-13T12:07:12.814Z,24.90
2023-05-13T12:08:12.725Z,24.87
2023-05-13T12:09:12.865Z,24.88
2023-05-13T12:10:12.729Z,24.90
2023-05-13T12:11:12.776Z,24.88
2023-05-13T12:12:12.679Z,24.88
2023-05-13T12:13:12.760Z,24.85
2023-05-13T12:14:12.657Z,24.88
2023-05-13T12:15:12.720Z,24.87
2023-05-13T12:16:12.672Z,24.87
2023-05-13T12:17:12.709Z,24.88
2023-05-13T12:18:12.666Z,24.87
2023-05-13T12:19:12.811Z,24.88
2023-05-13T12:20:12.710Z,24.87
2023-05-13T12:21:12.659Z,24.84
2023-05-13T12:22:12.579Z,24.87
2023-05-13T12:23:12.663Z,24.85
2023-05-13T12:24:12.549Z,24.85
2023-05-13T12:25:12.614Z,24.87
2023-05-13T12:26:12.528Z,24.85
2023-05-13T12:27:12.594Z,24.83
2023-05-13T12:28:12.516Z,24.85
2023-05-13T12:29:12.583Z,24.83
2023-05-13T12:30:12.487Z,24.85
2023-05-13T12:31:12.633Z,24.85
2023-05-13T12:32:12.467Z,24.85
2023-05-13T12:33:12.528Z,24.85
2023-05-13T12:34:12.445Z,24.85
2023-05-13T12:35:12.520Z,24.84
2023-05-13T12:36:12.425Z,24.84
2023-05-13T12:37:12.680Z,24.84
2023-05-13T12:38:12.400Z,24.85
2023-05-13T12:39:12.464Z,24.83
2023-05-13T12:40:12.382Z,24.85
2023-05-13T12:41:12.453Z,24.84
2023-05-13T12:42:12.367Z,24.84
2023-05-13T12:43:12.426Z,24.83
2023-05-13T12:44:12.331Z,24.80
2023-05-13T12:45:12.404Z,24.83
2023-05-13T12:46:12.335Z,24.80
2023-05-13T12:47:12.394Z,24.84
2023-05-13T12:48:12.354Z,24.83
2023-05-13T12:49:12.367Z,24.80
2023-05-13T12:50:12.271Z,24.80
2023-05-13T12:51:12.356Z,24.80
2023-05-13T12:52:12.254Z,24.84